sensor_id;sensor_type;location;lat;lon;timestamp;temperature;humidity
13464;DHT22;6804;48.774;9.174;2024-03-02T00:00:24;9.90;99.90
13464;DHT22;6804;48.774;9.174;2024-03-02T00:02:53;9.90;99.90
13464;DHT22;6804;48.774;9.174;2024-03-02T00:05:22;9.90;99.90
13464;DHT22;6804;48.774;9.174;2024-03-02T00:07:54;9.90;99.90
13464;DHT22;6804;48.774;9.174;2024-03-02T00:10:24;9.80;99.90
13464;DHT22;6804;48.774;9.174;2024-03-02T00:12:58;9.80;99.90
13464;DHT22;6804;48.774;9.174;2024-03-02T00:15:42;9.70;99.90
13464;DHT22;6804;48.774;9.174;2024-03-02T00:18:14;9.70;99.90
13464;DHT22;6804;48.774;9.174;2024-03-02T00:20:44;9.70;99.90
13464;DHT22;6804;48.774;9.174;2024-03-02T00:23:16;9.70;99.90
13464;DHT22;6804;48.774;9.174;2024-03-02T00:25:48;9.60;99.90
13464;DHT22;6804;48.774;9.174;2024-03-02T00:28:36;9.60;99.90
13464;DHT22;6804;48.774;9.174;2024-03-02T00:31:08;9.70;99.90
13464;DHT22;6804;48.774;9.174;2024-03-02T00:33:41;9.60;99.90
13464;DHT22;6804;48.774;9.174;2024-03-02T00:36:09;9.60;99.90
13464;DHT22;6804;48.774;9.174;2024-03-02T00:38:55;9.70;99.90
13464;DHT22;6804;48.774;9.174;2024-03-02T00:41:29;9.70;99.90
13464;DHT22;6804;48.774;9.174;2024-03-02T00:44:02;9.70;99.90
13464;DHT22;6804;48.774;9.174;2024-03-02T00:46:53;9.60;99.90
13464;DHT22;6804;48.774;9.174;2024-03-02T00:49:23;9.70;99.90
13464;DHT22;6804;48.774;9.174;2024-03-02T00:51:58;9.60;99.90
13464;DHT22;6804;48.774;9.174;2024-03-02T00:54:28;9.60;99.90
13464;DHT22;6804;48.774;9.174;2024-03-02T00:56:58;9.60;99.90
13464;DHT22;6804;48.774;9.174;2024-03-02T00:59:27;9.60;99.90
13464;DHT22;6804;48.774;9.174;2024-03-02T01:01:56;9.60;99.90
13464;DHT22;6804;48.774;9.174;2024-03-02T01:04:26;9.60;99.90
13464;DHT22;6804;48.774;9.174;2024-03-02T01:06:56;9.60;99.90
13464;DHT22;6804;48.774;9.174;2024-03-02T01:09:26;9.60;99.90
13464;DHT22;6804;48.774;9.174;2024-03-02T01:11:58;9.50;99.90
13464;DHT22;6804;48.774;9.174;2024-03-02T01:14:27;9.50;99.90
13464;DHT22;6804;48.774;9.174;2024-03-02T01:16:58;9.50;99.90
13464;DHT22;6804;48.774;9.174;2024-03-02T01:19:28;9.50;99.90
13464;DHT22;6804;48.774;9.174;2024-03-02T01:21:59;9.50;99.90
13464;DHT22;6804;48.774;9.174;2024-03-02T01:24:28;9.50;99.90
13464;DHT22;6804;48.774;9.174;2024-03-02T01:26:58;9.50;99.90
13464;DHT22;6804;48.774;9.174;2024-03-02T01:29:30;9.50;99.90
13464;DHT22;6804;48.774;9.174;2024-03-02T01:31:59;9.50;99.90
13464;DHT22;6804;48.774;9.174;2024-03-02T01:34:26;9.50;99.90
13464;DHT22;6804;48.774;9.174;2024-03-02T01:36:54;9.50;99.90
13464;DHT22;6804;48.774;9.174;2024-03-02T01:39:22;9.50;99.90
13464;DHT22;6804;48.774;9.174;2024-03-02T01:41:51;9.50;99.90
13464;DHT22;6804;48.774;9.174;2024-03-02T01:44:18;9.50;99.90
13464;DHT22;6804;48.774;9.174;2024-03-02T01:46:48;9.50;99.90
13464;DHT22;6804;48.774;9.174;2024-03-02T01:49:19;9.50;99.90
13464;DHT22;6804;48.774;9.174;2024-03-02T01:51:49;9.40;99.90
13464;DHT22;6804;48.774;9.174;2024-03-02T01:54:19;9.40;99.90
13464;DHT22;6804;48.774;9.174;2024-03-02T01:56:47;9.40;99.90
13464;DHT22;6804;48.774;9.174;2024-03-02T01:59:33;9.40;99.90
13464;DHT22;6804;48.774;9.174;2024-03-02T02:02:03;9.40;99.90
13464;DHT22;6804;48.774;9.174;2024-03-02T02:04:32;9.40;99.90
13464;DHT22;6804;48.774;9.174;2024-03-02T02:07:01;9.40;99.90
13464;DHT22;6804;48.774;9.174;2024-03-02T02:09:31;9.40;99.90
13464;DHT22;6804;48.774;9.174;2024-03-02T02:12:02;9.30;99.90
13464;DHT22;6804;48.774;9.174;2024-03-02T02:14:32;9.30;99.90
13464;DHT22;6804;48.774;9.174;2024-03-02T02:20:10;9.30;99.90
13464;DHT22;6804;48.774;9.174;2024-03-02T02:22:40;9.20;99.90
13464;DHT22;6804;48.774;9.174;2024-03-02T02:25:19;9.20;99.90
13464;DHT22;6804;48.774;9.174;2024-03-02T02:27:50;9.20;99.90
13464;DHT22;6804;48.774;9.174;2024-03-02T02:30:20;9.20;99.90
13464;DHT22;6804;48.774;9.174;2024-03-02T02:32:50;9.10;99.90
13464;DHT22;6804;48.774;9.174;2024-03-02T02:35:21;9.10;99.90
13464;DHT22;6804;48.774;9.174;2024-03-02T02:37:55;9.00;99.90
13464;DHT22;6804;48.774;9.174;2024-03-02T02:40:25;9.00;99.90
13464;DHT22;6804;48.774;9.174;2024-03-02T02:42:54;9.00;99.90
13464;DHT22;6804;48.774;9.174;2024-03-02T02:45:22;9.00;99.90
13464;DHT22;6804;48.774;9.174;2024-03-02T02:47:51;9.00;99.90
13464;DHT22;6804;48.774;9.174;2024-03-02T02:50:19;8.90;99.90
13464;DHT22;6804;48.774;9.174;2024-03-02T02:52:47;8.70;99.90
13464;DHT22;6804;48.774;9.174;2024-03-02T02:55:18;8.60;99.90
13464;DHT22;6804;48.774;9.174;2024-03-02T02:57:45;8.60;99.90
13464;DHT22;6804;48.774;9.174;2024-03-02T03:00:15;8.50;99.90
13464;DHT22;6804;48.774;9.174;2024-03-02T03:02:52;8.50;99.90
13464;DHT22;6804;48.774;9.174;2024-03-02T03:05:43;8.50;99.90
13464;DHT22;6804;48.774;9.174;2024-03-02T03:08:11;8.60;99.90
13464;DHT22;6804;48.774;9.174;2024-03-02T03:10:43;8.60;99.90
13464;DHT22;6804;48.774;9.174;2024-03-02T03:13:14;8.60;99.90
13464;DHT22;6804;48.774;9.174;2024-03-02T03:15:42;8.50;99.90
13464;DHT22;6804;48.774;9.174;2024-03-02T03:18:10;8.50;99.90
13464;DHT22;6804;48.774;9.174;2024-03-02T03:20:41;8.50;99.90
13464;DHT22;6804;48.774;9.174;2024-03-02T03:23:09;8.50;99.90
13464;DHT22;6804;48.774;9.174;2024-03-02T03:25:44;8.40;99.90
13464;DHT22;6804;48.774;9.174;2024-03-02T03:28:14;8.40;99.90
13464;DHT22;6804;48.774;9.174;2024-03-02T03:30:43;8.30;99.90
13464;DHT22;6804;48.774;9.174;2024-03-02T03:33:10;8.30;99.90
13464;DHT22;6804;48.774;9.174;2024-03-02T03:35:41;8.30;99.90
13464;DHT22;6804;48.774;9.174;2024-03-02T03:38:08;8.30;99.90
13464;DHT22;6804;48.774;9.174;2024-03-02T03:40:36;8.30;99.90
13464;DHT22;6804;48.774;9.174;2024-03-02T03:43:05;8.20;99.90
13464;DHT22;6804;48.774;9.174;2024-03-02T03:45:35;8.20;99.90
13464;DHT22;6804;48.774;9.174;2024-03-02T03:48:03;8.10;99.90
13464;DHT22;6804;48.774;9.174;2024-03-02T03:50:33;8.10;99.90
13464;DHT22;6804;48.774;9.174;2024-03-02T03:53:03;8.10;99.90
13464;DHT22;6804;48.774;9.174;2024-03-02T03:55:34;8.10;99.90
13464;DHT22;6804;48.774;9.174;2024-03-02T03:58:02;8.10;99.90
13464;DHT22;6804;48.774;9.174;2024-03-02T04:00:34;8.00;99.90
13464;DHT22;6804;48.774;9.174;2024-03-02T04:03:04;8.00;99.90
13464;DHT22;6804;48.774;9.174;2024-03-02T04:05:35;8.00;99.90
13464;DHT22;6804;48.774;9.174;2024-03-02T04:08:04;8.00;99.90
13464;DHT22;6804;48.774;9.174;2024-03-02T04:10:32;8.00;99.90
13464;DHT22;6804;48.774;9.174;2024-03-02T04:13:03;8.00;99.90
13464;DHT22;6804;48.774;9.174;2024-03-02T04:15:35;7.90;99.90
13464;DHT22;6804;48.774;9.174;2024-03-02T04:18:04;7.90;99.90
13464;DHT22;6804;48.774;9.174;2024-03-02T04:20:33;7.80;99.90
13464;DHT22;6804;48.774;9.174;2024-03-02T04:23:03;7.70;99.90
13464;DHT22;6804;48.774;9.174;2024-03-02T04:25:34;7.70;99.90
13464;DHT22;6804;48.774;9.174;2024-03-02T04:28:03;7.60;99.90
13464;DHT22;6804;48.774;9.174;2024-03-02T04:30:34;7.60;99.90
13464;DHT22;6804;48.774;9.174;2024-03-02T04:33:04;7.60;99.90
13464;DHT22;6804;48.774;9.174;2024-03-02T04:35:35;7.70;99.90
13464;DHT22;6804;48.774;9.174;2024-03-02T04:38:08;7.70;99.90
13464;DHT22;6804;48.774;9.174;2024-03-02T04:40:35;7.80;99.90
13464;DHT22;6804;48.774;9.174;2024-03-02T04:43:03;7.90;99.90
13464;DHT22;6804;48.774;9.174;2024-03-02T04:45:33;8.00;99.90
13464;DHT22;6804;48.774;9.174;2024-03-02T04:48:01;8.00;99.90
13464;DHT22;6804;48.774;9.174;2024-03-02T04:50:31;8.00;99.90
13464;DHT22;6804;48.774;9.174;2024-03-02T04:52:59;8.00;99.90
13464;DHT22;6804;48.774;9.174;2024-03-02T04:55:26;7.80;99.90
13464;DHT22;6804;48.774;9.174;2024-03-02T04:58:22;7.70;99.90
13464;DHT22;6804;48.774;9.174;2024-03-02T05:00:50;7.50;99.90
13464;DHT22;6804;48.774;9.174;2024-03-02T05:03:38;7.60;99.90
13464;DHT22;6804;48.774;9.174;2024-03-02T05:06:07;7.70;99.90
13464;DHT22;6804;48.774;9.174;2024-03-02T05:08:36;7.70;99.90
13464;DHT22;6804;48.774;9.174;2024-03-02T05:11:03;7.80;99.90
13464;DHT22;6804;48.774;9.174;2024-03-02T05:13:45;7.60;99.90
13464;DHT22;6804;48.774;9.174;2024-03-02T05:16:15;7.50;99.90
13464;DHT22;6804;48.774;9.174;2024-03-02T05:18:46;7.50;99.90
13464;DHT22;6804;48.774;9.174;2024-03-02T05:21:17;7.50;99.90
13464;DHT22;6804;48.774;9.174;2024-03-02T05:23:46;7.60;99.90
13464;DHT22;6804;48.774;9.174;2024-03-02T05:26:15;7.70;99.90
13464;DHT22;6804;48.774;9.174;2024-03-02T05:28:43;7.70;99.90
13464;DHT22;6804;48.774;9.174;2024-03-02T05:31:15;7.70;99.90
13464;DHT22;6804;48.774;9.174;2024-03-02T05:33:44;7.70;99.90
13464;DHT22;6804;48.774;9.174;2024-03-02T05:36:16;7.70;99.90
13464;DHT22;6804;48.774;9.174;2024-03-02T05:38:44;7.70;99.90
13464;DHT22;6804;48.774;9.174;2024-03-02T05:41:12;7.70;99.90
13464;DHT22;6804;48.774;9.174;2024-03-02T05:43:40;7.70;99.90
13464;DHT22;6804;48.774;9.174;2024-03-02T05:46:14;7.70;99.90
13464;DHT22;6804;48.774;9.174;2024-03-02T05:48:44;7.70;99.90
13464;DHT22;6804;48.774;9.174;2024-03-02T05:51:16;7.70;99.90
13464;DHT22;6804;48.774;9.174;2024-03-02T05:53:44;7.70;99.90
13464;DHT22;6804;48.774;9.174;2024-03-02T05:56:12;7.70;99.90
13464;DHT22;6804;48.774;9.174;2024-03-02T05:58:41;7.60;99.90
13464;DHT22;6804;48.774;9.174;2024-03-02T06:01:27;7.60;99.90
13464;DHT22;6804;48.774;9.174;2024-03-02T06:03:56;7.60;99.90
13464;DHT22;6804;48.774;9.174;2024-03-02T06:06:26;7.60;99.90
13464;DHT22;6804;48.774;9.174;2024-03-02T06:08:54;7.70;99.90
13464;DHT22;6804;48.774;9.174;2024-03-02T06:11:24;7.70;99.90
13464;DHT22;6804;48.774;9.174;2024-03-02T06:13:52;7.70;99.90
13464;DHT22;6804;48.774;9.174;2024-03-02T06:16:21;7.80;99.90
13464;DHT22;6804;48.774;9.174;2024-03-02T06:18:49;7.80;99.90
13464;DHT22;6804;48.774;9.174;2024-03-02T06:21:17;7.80;99.90
13464;DHT22;6804;48.774;9.174;2024-03-02T06:23:49;7.80;99.90
13464;DHT22;6804;48.774;9.174;2024-03-02T06:26:17;7.90;99.90
13464;DHT22;6804;48.774;9.174;2024-03-02T06:28:47;7.90;99.90
13464;DHT22;6804;48.774;9.174;2024-03-02T06:31:14;8.00;99.90
13464;DHT22;6804;48.774;9.174;2024-03-02T06:33:42;8.00;99.90
13464;DHT22;6804;48.774;9.174;2024-03-02T06:36:11;8.00;99.90
13464;DHT22;6804;48.774;9.174;2024-03-02T06:38:38;8.00;99.90
13464;DHT22;6804;48.774;9.174;2024-03-02T06:41:08;7.90;99.90
13464;DHT22;6804;48.774;9.174;2024-03-02T06:43:54;7.80;99.90
13464;DHT22;6804;48.774;9.174;2024-03-02T06:46:28;7.70;99.90
13464;DHT22;6804;48.774;9.174;2024-03-02T06:48:59;7.60;99.90
13464;DHT22;6804;48.774;9.174;2024-03-02T06:51:28;7.60;99.90
13464;DHT22;6804;48.774;9.174;2024-03-02T06:54:14;7.60;99.90
13464;DHT22;6804;48.774;9.174;2024-03-02T06:56:46;7.70;99.90
13464;DHT22;6804;48.774;9.174;2024-03-02T06:59:13;7.80;99.90
13464;DHT22;6804;48.774;9.174;2024-03-02T07:01:44;7.90;99.90
13464;DHT22;6804;48.774;9.174;2024-03-02T07:04:18;8.00;99.90
13464;DHT22;6804;48.774;9.174;2024-03-02T07:06:49;8.10;99.90
13464;DHT22;6804;48.774;9.174;2024-03-02T07:09:20;8.20;99.90
13464;DHT22;6804;48.774;9.174;2024-03-02T07:11:50;8.30;99.90
13464;DHT22;6804;48.774;9.174;2024-03-02T07:14:20;8.30;99.90
13464;DHT22;6804;48.774;9.174;2024-03-02T07:17:03;8.40;99.90
13464;DHT22;6804;48.774;9.174;2024-03-02T07:19:52;8.60;99.90
13464;DHT22;6804;48.774;9.174;2024-03-02T07:22:21;8.70;99.90
13464;DHT22;6804;48.774;9.174;2024-03-02T07:24:49;8.80;99.90
13464;DHT22;6804;48.774;9.174;2024-03-02T07:27:20;9.00;99.90
13464;DHT22;6804;48.774;9.174;2024-03-02T07:29:48;9.00;99.90
13464;DHT22;6804;48.774;9.174;2024-03-02T07:32:18;9.20;99.90
13464;DHT22;6804;48.774;9.174;2024-03-02T07:34:51;9.30;99.90
13464;DHT22;6804;48.774;9.174;2024-03-02T07:37:22;9.50;99.90
13464;DHT22;6804;48.774;9.174;2024-03-02T07:39:53;9.70;99.90
13464;DHT22;6804;48.774;9.174;2024-03-02T07:42:24;9.80;99.90
13464;DHT22;6804;48.774;9.174;2024-03-02T07:44:51;9.80;99.90
13464;DHT22;6804;48.774;9.174;2024-03-02T07:47:20;9.80;99.90
13464;DHT22;6804;48.774;9.174;2024-03-02T07:49:48;9.80;99.90
13464;DHT22;6804;48.774;9.174;2024-03-02T07:52:17;9.80;99.90
13464;DHT22;6804;48.774;9.174;2024-03-02T07:54:48;9.90;99.90
13464;DHT22;6804;48.774;9.174;2024-03-02T07:57:17;9.80;99.90
13464;DHT22;6804;48.774;9.174;2024-03-02T07:59:49;9.80;99.90
13464;DHT22;6804;48.774;9.174;2024-03-02T08:02:21;9.90;99.90
13464;DHT22;6804;48.774;9.174;2024-03-02T08:04:50;9.80;99.90
13464;DHT22;6804;48.774;9.174;2024-03-02T08:07:18;9.90;99.90
13464;DHT22;6804;48.774;9.174;2024-03-02T08:09:51;9.90;99.90
13464;DHT22;6804;48.774;9.174;2024-03-02T08:12:21;9.90;99.90
13464;DHT22;6804;48.774;9.174;2024-03-02T08:14:51;9.90;99.90
13464;DHT22;6804;48.774;9.174;2024-03-02T08:17:19;9.90;99.90
13464;DHT22;6804;48.774;9.174;2024-03-02T08:19:50;10.00;99.90
13464;DHT22;6804;48.774;9.174;2024-03-02T08:22:21;10.00;99.90
13464;DHT22;6804;48.774;9.174;2024-03-02T08:24:49;10.10;99.90
13464;DHT22;6804;48.774;9.174;2024-03-02T08:27:17;10.10;99.90
13464;DHT22;6804;48.774;9.174;2024-03-02T08:29:45;10.20;99.90
13464;DHT22;6804;48.774;9.174;2024-03-02T08:32:14;10.30;99.90
13464;DHT22;6804;48.774;9.174;2024-03-02T08:34:43;10.50;99.90
13464;DHT22;6804;48.774;9.174;2024-03-02T08:37:10;10.60;99.90
13464;DHT22;6804;48.774;9.174;2024-03-02T08:39:40;10.70;99.90
13464;DHT22;6804;48.774;9.174;2024-03-02T08:42:09;10.90;99.90
13464;DHT22;6804;48.774;9.174;2024-03-02T08:44:39;11.20;99.90
13464;DHT22;6804;48.774;9.174;2024-03-02T08:47:07;11.50;99.90
13464;DHT22;6804;48.774;9.174;2024-03-02T08:49:37;11.80;99.90
13464;DHT22;6804;48.774;9.174;2024-03-02T08:52:05;12.10;99.90
13464;DHT22;6804;48.774;9.174;2024-03-02T08:54:36;12.40;99.90
13464;DHT22;6804;48.774;9.174;2024-03-02T08:57:06;12.60;99.90
13464;DHT22;6804;48.774;9.174;2024-03-02T08:59:36;12.90;99.90
13464;DHT22;6804;48.774;9.174;2024-03-02T09:02:04;13.10;99.90
13464;DHT22;6804;48.774;9.174;2024-03-02T09:04:32;12.90;99.90
13464;DHT22;6804;48.774;9.174;2024-03-02T09:07:19;13.00;99.90
13464;DHT22;6804;48.774;9.174;2024-03-02T09:09:50;13.20;99.90
13464;DHT22;6804;48.774;9.174;2024-03-02T09:12:36;13.30;99.90
13464;DHT22;6804;48.774;9.174;2024-03-02T09:15:10;13.60;99.90
13464;DHT22;6804;48.774;9.174;2024-03-02T09:17:43;13.80;99.90
13464;DHT22;6804;48.774;9.174;2024-03-02T09:20:11;13.90;99.90
13464;DHT22;6804;48.774;9.174;2024-03-02T09:22:42;14.10;99.90
13464;DHT22;6804;48.774;9.174;2024-03-02T09:25:12;14.20;99.90
13464;DHT22;6804;48.774;9.174;2024-03-02T09:27:40;14.30;99.90
13464;DHT22;6804;48.774;9.174;2024-03-02T09:30:13;14.40;99.90
13464;DHT22;6804;48.774;9.174;2024-03-02T09:32:41;14.50;99.90
13464;DHT22;6804;48.774;9.174;2024-03-02T09:35:13;14.70;99.90
13464;DHT22;6804;48.774;9.174;2024-03-02T09:37:43;14.80;99.90
13464;DHT22;6804;48.774;9.174;2024-03-02T09:40:12;14.90;99.90
13464;DHT22;6804;48.774;9.174;2024-03-02T09:42:40;15.00;99.90
13464;DHT22;6804;48.774;9.174;2024-03-02T09:45:12;15.00;99.90
13464;DHT22;6804;48.774;9.174;2024-03-02T09:47:41;14.90;99.90
13464;DHT22;6804;48.774;9.174;2024-03-02T09:50:12;14.90;99.90
13464;DHT22;6804;48.774;9.174;2024-03-02T09:52:48;14.80;99.90
13464;DHT22;6804;48.774;9.174;2024-03-02T09:55:22;14.70;99.90
13464;DHT22;6804;48.774;9.174;2024-03-02T09:57:52;14.50;99.90
13464;DHT22;6804;48.774;9.174;2024-03-02T10:00:22;14.30;99.90
13464;DHT22;6804;48.774;9.174;2024-03-02T10:02:51;14.30;99.90
13464;DHT22;6804;48.774;9.174;2024-03-02T10:05:27;14.50;99.90
13464;DHT22;6804;48.774;9.174;2024-03-02T10:08:05;14.60;99.90
13464;DHT22;6804;48.774;9.174;2024-03-02T10:10:36;14.70;99.90
13464;DHT22;6804;48.774;9.174;2024-03-02T10:13:06;14.80;99.90
13464;DHT22;6804;48.774;9.174;2024-03-02T10:15:37;15.00;99.90
13464;DHT22;6804;48.774;9.174;2024-03-02T10:18:08;15.00;99.90
13464;DHT22;6804;48.774;9.174;2024-03-02T10:20:44;15.00;99.90
13464;DHT22;6804;48.774;9.174;2024-03-02T10:26:24;15.10;99.90
13464;DHT22;6804;48.774;9.174;2024-03-02T10:28:56;15.20;99.90
13464;DHT22;6804;48.774;9.174;2024-03-02T10:31:25;15.30;99.90
13464;DHT22;6804;48.774;9.174;2024-03-02T10:33:56;15.30;99.90
13464;DHT22;6804;48.774;9.174;2024-03-02T10:36:25;15.20;99.90
13464;DHT22;6804;48.774;9.174;2024-03-02T10:38:53;15.20;99.90
13464;DHT22;6804;48.774;9.174;2024-03-02T10:41:25;14.90;99.90
13464;DHT22;6804;48.774;9.174;2024-03-02T10:43:55;14.50;99.90
13464;DHT22;6804;48.774;9.174;2024-03-02T10:46:28;14.50;99.90
13464;DHT22;6804;48.774;9.174;2024-03-02T10:48:58;14.80;99.90
13464;DHT22;6804;48.774;9.174;2024-03-02T10:51:29;15.10;99.90
13464;DHT22;6804;48.774;9.174;2024-03-02T10:54:21;15.30;99.90
13464;DHT22;6804;48.774;9.174;2024-03-02T10:56:59;15.50;99.90
13464;DHT22;6804;48.774;9.174;2024-03-02T10:59:28;15.80;99.90
13464;DHT22;6804;48.774;9.174;2024-03-02T11:02:05;16.00;99.90
13464;DHT22;6804;48.774;9.174;2024-03-02T11:04:35;15.90;99.90
13464;DHT22;6804;48.774;9.174;2024-03-02T11:07:06;15.20;99.90
13464;DHT22;6804;48.774;9.174;2024-03-02T11:09:35;14.90;99.90
13464;DHT22;6804;48.774;9.174;2024-03-02T11:12:12;14.70;99.90
13464;DHT22;6804;48.774;9.174;2024-03-02T11:14:44;14.50;99.90
13464;DHT22;6804;48.774;9.174;2024-03-02T11:17:14;14.60;99.90
13464;DHT22;6804;48.774;9.174;2024-03-02T11:19:47;14.50;99.90
13464;DHT22;6804;48.774;9.174;2024-03-02T11:22:16;14.40;99.90
13464;DHT22;6804;48.774;9.174;2024-03-02T11:24:48;14.40;99.90
13464;DHT22;6804;48.774;9.174;2024-03-02T11:30:50;14.30;99.90
13464;DHT22;6804;48.774;9.174;2024-03-02T11:33:28;14.40;99.90
13464;DHT22;6804;48.774;9.174;2024-03-02T11:35:57;14.80;99.90
13464;DHT22;6804;48.774;9.174;2024-03-02T11:38:36;15.00;99.90
13464;DHT22;6804;48.774;9.174;2024-03-02T11:41:08;15.20;99.90
13464;DHT22;6804;48.774;9.174;2024-03-02T11:43:48;15.40;99.90
13464;DHT22;6804;48.774;9.174;2024-03-02T11:46:17;15.60;99.90
13464;DHT22;6804;48.774;9.174;2024-03-02T11:48:50;15.40;99.90
13464;DHT22;6804;48.774;9.174;2024-03-02T11:51:20;15.30;99.90
13464;DHT22;6804;48.774;9.174;2024-03-02T11:53:54;15.40;99.90
13464;DHT22;6804;48.774;9.174;2024-03-02T11:56:27;15.40;99.90
13464;DHT22;6804;48.774;9.174;2024-03-02T11:58:57;15.40;99.90
13464;DHT22;6804;48.774;9.174;2024-03-02T12:01:29;15.50;99.70
13464;DHT22;6804;48.774;9.174;2024-03-02T12:03:58;15.50;98.60
13464;DHT22;6804;48.774;9.174;2024-03-02T12:06:28;15.40;99.10
13464;DHT22;6804;48.774;9.174;2024-03-02T12:08:58;15.50;99.70
13464;DHT22;6804;48.774;9.174;2024-03-02T12:11:28;15.70;99.10
13464;DHT22;6804;48.774;9.174;2024-03-02T12:14:14;15.90;99.00
13464;DHT22;6804;48.774;9.174;2024-03-02T12:16:46;16.10;98.60
13464;DHT22;6804;48.774;9.174;2024-03-02T12:19:16;16.30;99.00
13464;DHT22;6804;48.774;9.174;2024-03-02T12:21:47;16.30;98.50
13464;DHT22;6804;48.774;9.174;2024-03-02T12:24:17;16.30;99.00
13464;DHT22;6804;48.774;9.174;2024-03-02T12:26:46;16.30;98.40
13464;DHT22;6804;48.774;9.174;2024-03-02T12:29:16;16.40;98.70
13464;DHT22;6804;48.774;9.174;2024-03-02T12:31:48;16.60;98.30
13464;DHT22;6804;48.774;9.174;2024-03-02T12:34:18;16.80;97.40
13464;DHT22;6804;48.774;9.174;2024-03-02T12:36:47;17.00;97.70
13464;DHT22;6804;48.774;9.174;2024-03-02T12:39:19;16.90;96.40
13464;DHT22;6804;48.774;9.174;2024-03-02T12:41:49;16.60;97.20
13464;DHT22;6804;48.774;9.174;2024-03-02T12:44:18;16.70;98.10
13464;DHT22;6804;48.774;9.174;2024-03-02T12:46:48;16.90;97.80
13464;DHT22;6804;48.774;9.174;2024-03-02T12:49:22;17.20;97.00
13464;DHT22;6804;48.774;9.174;2024-03-02T12:51:55;17.40;97.00
13464;DHT22;6804;48.774;9.174;2024-03-02T12:54:27;17.60;96.40
13464;DHT22;6804;48.774;9.174;2024-03-02T12:56:57;17.70;96.20
13464;DHT22;6804;48.774;9.174;2024-03-02T12:59:29;17.80;96.00
13464;DHT22;6804;48.774;9.174;2024-03-02T13:01:59;17.90;95.30
13464;DHT22;6804;48.774;9.174;2024-03-02T13:04:28;18.00;95.30
13464;DHT22;6804;48.774;9.174;2024-03-02T13:06:59;17.80;95.30
13464;DHT22;6804;48.774;9.174;2024-03-02T13:09:28;17.90;94.60
13464;DHT22;6804;48.774;9.174;2024-03-02T13:12:00;17.70;95.60
13464;DHT22;6804;48.774;9.174;2024-03-02T13:14:33;17.80;95.70
13464;DHT22;6804;48.774;9.174;2024-03-02T13:17:06;18.00;95.50
13464;DHT22;6804;48.774;9.174;2024-03-02T13:20:31;18.10;95.10
13464;DHT22;6804;48.774;9.174;2024-03-02T13:23:04;18.20;95.20
13464;DHT22;6804;48.774;9.174;2024-03-02T13:25:32;18.20;94.40
13464;DHT22;6804;48.774;9.174;2024-03-02T13:28:03;18.30;94.90
13464;DHT22;6804;48.774;9.174;2024-03-02T13:30:33;18.10;94.20
13464;DHT22;6804;48.774;9.174;2024-03-02T13:33:03;17.70;93.80
13464;DHT22;6804;48.774;9.174;2024-03-02T13:35:33;17.50;94.80
13464;DHT22;6804;48.774;9.174;2024-03-02T13:38:03;17.70;95.40
13464;DHT22;6804;48.774;9.174;2024-03-02T13:40:33;17.90;95.20
13464;DHT22;6804;48.774;9.174;2024-03-02T13:43:05;18.20;94.60
13464;DHT22;6804;48.774;9.174;2024-03-02T13:45:35;18.40;95.10
13464;DHT22;6804;48.774;9.174;2024-03-02T13:48:10;18.40;94.10
13464;DHT22;6804;48.774;9.174;2024-03-02T13:50:40;18.30;93.90
13464;DHT22;6804;48.774;9.174;2024-03-02T13:53:09;18.20;93.50
13464;DHT22;6804;48.774;9.174;2024-03-02T13:55:40;18.30;94.00
13464;DHT22;6804;48.774;9.174;2024-03-02T13:58:13;18.00;92.90
13464;DHT22;6804;48.774;9.174;2024-03-02T14:00:53;17.80;93.20
13464;DHT22;6804;48.774;9.174;2024-03-02T14:03:26;17.80;93.40
13464;DHT22;6804;48.774;9.174;2024-03-02T14:06:02;18.00;93.80
13464;DHT22;6804;48.774;9.174;2024-03-02T14:08:34;18.10;93.50
13464;DHT22;6804;48.774;9.174;2024-03-02T14:11:05;18.00;92.90
13464;DHT22;6804;48.774;9.174;2024-03-02T14:13:41;17.70;92.80
13464;DHT22;6804;48.774;9.174;2024-03-02T14:16:13;17.20;93.50
13464;DHT22;6804;48.774;9.174;2024-03-02T14:18:42;16.90;93.40
13464;DHT22;6804;48.774;9.174;2024-03-02T14:21:10;16.80;93.90
13464;DHT22;6804;48.774;9.174;2024-03-02T14:23:38;16.90;93.60
13464;DHT22;6804;48.774;9.174;2024-03-02T14:26:11;17.10;94.10
13464;DHT22;6804;48.774;9.174;2024-03-02T14:28:39;17.40;94.10
13464;DHT22;6804;48.774;9.174;2024-03-02T14:31:08;17.50;93.40
13464;DHT22;6804;48.774;9.174;2024-03-02T14:33:36;17.50;93.10
13464;DHT22;6804;48.774;9.174;2024-03-02T14:36:06;17.40;92.90
13464;DHT22;6804;48.774;9.174;2024-03-02T14:38:35;17.40;93.00
13464;DHT22;6804;48.774;9.174;2024-03-02T14:41:04;17.40;93.10
13464;DHT22;6804;48.774;9.174;2024-03-02T14:43:32;17.20;92.50
13464;DHT22;6804;48.774;9.174;2024-03-02T14:46:04;17.20;92.40
13464;DHT22;6804;48.774;9.174;2024-03-02T14:48:34;17.00;92.00
13464;DHT22;6804;48.774;9.174;2024-03-02T14:51:02;16.80;91.70
13464;DHT22;6804;48.774;9.174;2024-03-02T14:53:32;16.80;92.00
13464;DHT22;6804;48.774;9.174;2024-03-02T14:56:00;16.80;92.10
13464;DHT22;6804;48.774;9.174;2024-03-02T14:58:31;16.80;92.00
13464;DHT22;6804;48.774;9.174;2024-03-02T15:01:01;16.90;92.20
13464;DHT22;6804;48.774;9.174;2024-03-02T15:03:30;16.90;91.20
13464;DHT22;6804;48.774;9.174;2024-03-02T15:06:02;16.70;91.00
13464;DHT22;6804;48.774;9.174;2024-03-02T15:08:31;16.50;90.90
13464;DHT22;6804;48.774;9.174;2024-03-02T15:11:00;16.40;91.20
13464;DHT22;6804;48.774;9.174;2024-03-02T15:13:32;16.40;90.80
13464;DHT22;6804;48.774;9.174;2024-03-02T15:16:01;16.30;91.30
13464;DHT22;6804;48.774;9.174;2024-03-02T15:18:32;16.40;91.30
13464;DHT22;6804;48.774;9.174;2024-03-02T15:21:01;16.30;91.10
13464;DHT22;6804;48.774;9.174;2024-03-02T15:23:34;16.20;90.90
13464;DHT22;6804;48.774;9.174;2024-03-02T15:26:02;16.20;91.10
13464;DHT22;6804;48.774;9.174;2024-03-02T15:28:30;16.20;91.40
13464;DHT22;6804;48.774;9.174;2024-03-02T15:31:00;16.20;91.40
13464;DHT22;6804;48.774;9.174;2024-03-02T15:33:27;16.20;91.20
13464;DHT22;6804;48.774;9.174;2024-03-02T15:35:58;16.30;91.10
13464;DHT22;6804;48.774;9.174;2024-03-02T15:38:34;16.30;90.80
13464;DHT22;6804;48.774;9.174;2024-03-02T15:41:03;16.30;91.20
13464;DHT22;6804;48.774;9.174;2024-03-02T15:43:34;16.20;91.20
13464;DHT22;6804;48.774;9.174;2024-03-02T15:46:05;16.10;90.80
13464;DHT22;6804;48.774;9.174;2024-03-02T15:48:33;16.10;91.00
13464;DHT22;6804;48.774;9.174;2024-03-02T15:51:04;16.00;90.60
13464;DHT22;6804;48.774;9.174;2024-03-02T15:53:36;15.90;90.60
13464;DHT22;6804;48.774;9.174;2024-03-02T15:56:06;15.80;91.10
13464;DHT22;6804;48.774;9.174;2024-03-02T15:58:35;15.50;91.50
13464;DHT22;6804;48.774;9.174;2024-03-02T16:01:05;15.40;92.00
13464;DHT22;6804;48.774;9.174;2024-03-02T16:03:35;15.30;92.30
13464;DHT22;6804;48.774;9.174;2024-03-02T16:06:04;15.30;92.50
13464;DHT22;6804;48.774;9.174;2024-03-02T16:08:35;15.20;92.70
13464;DHT22;6804;48.774;9.174;2024-03-02T16:11:03;15.10;93.10
13464;DHT22;6804;48.774;9.174;2024-03-02T16:13:32;15.10;93.20
13464;DHT22;6804;48.774;9.174;2024-03-02T16:16:20;15.00;93.40
13464;DHT22;6804;48.774;9.174;2024-03-02T16:18:48;15.00;93.80
13464;DHT22;6804;48.774;9.174;2024-03-02T16:21:18;14.90;94.10
13464;DHT22;6804;48.774;9.174;2024-03-02T16:24:12;14.80;94.40
13464;DHT22;6804;48.774;9.174;2024-03-02T16:26:44;14.80;94.80
13464;DHT22;6804;48.774;9.174;2024-03-02T16:29:12;14.70;95.10